createdAt,value
2023-01-01T00:04:17.494Z,62.79
2023-01-01T00:09:34.345Z,63.07
2023-01-01T00:14:34.483Z,63.63
2023-01-01T00:19:33.256Z,63.33
2023-01-01T00:24:32.137Z,63.53
2023-01-01T00:29:30.884Z,64.02
2023-01-01T00:34:31.068Z,64.10
2023-01-01T00:39:29.832Z,64.04
2023-01-01T00:44:28.597Z,64.75
2023-01-01T00:49:27.968Z,64.24
2023-01-01T00:54:28.154Z,64.86
2023-01-01T00:59:28.882Z,64.55
2023-01-01T01:04:27.975Z,64.41
2023-01-01T01:09:28.135Z,63.97
2023-01-01T01:14:26.899Z,64.17
2023-01-01T01:19:26.839Z,64.38
2023-01-01T01:24:25.588Z,64.33
2023-01-01T01:29:25.864Z,63.83
2023-01-01T01:34:28.099Z,63.70
2023-01-01T01:39:27.353Z,63.74
2023-01-01T01:45:02.550Z,63.61
2023-01-01T01:50:08.218Z,63.46
2023-01-01T01:55:09.462Z,63.71
2023-01-01T02:00:11.645Z,63.86
2023-01-01T02:05:13.084Z,64.02
2023-01-01T02:10:12.051Z,64.18
2023-01-01T02:15:11.330Z,64.24
2023-01-01T02:20:24.189Z,63.81
2023-01-01T02:25:37.028Z,64.06
2023-01-01T02:30:40.463Z,63.73
2023-01-01T02:35:42.671Z,63.42
2023-01-01T02:40:46.536Z,63.94
2023-01-01T02:45:46.729Z,64.21
2023-01-01T02:50:45.894Z,63.95
2023-01-01T02:55:55.913Z,63.75
2023-01-01T03:01:05.139Z,63.79
2023-01-01T03:06:27.251Z,63.86
2023-01-01T03:11:33.826Z,63.81
2023-01-01T03:16:39.695Z,64.31
2023-01-01T03:21:43.717Z,64.25
2023-01-01T03:26:44.940Z,64.49
2023-01-01T03:31:47.332Z,64.59
2023-01-01T03:36:50.464Z,64.30
2023-01-01T03:41:54.298Z,64.48
2023-01-01T03:46:55.150Z,64.54
2023-01-01T03:52:20.559Z,64.71
2023-01-01T03:57:24.878Z,66.23
2023-01-01T04:02:33.643Z,67.08
2023-01-01T04:07:32.820Z,66.91
2023-01-01T04:12:32.119Z,66.33
2023-01-01T04:17:32.236Z,66.11
2023-01-01T04:22:31.019Z,66.20
2023-01-01T04:27:29.973Z,66.21
2023-01-01T04:32:28.866Z,66.48
2023-01-01T04:37:29.767Z,66.24
2023-01-01T04:42:28.510Z,66.51
2023-01-01T04:47:28.082Z,66.57
2023-01-01T04:52:26.864Z,66.49
2023-01-01T04:57:26.997Z,66.09
2023-01-01T05:02:26.008Z,66.74
2023-01-01T05:07:24.800Z,66.33
2023-01-01T05:12:23.551Z,67.79
2023-01-01T05:17:23.718Z,67.49
2023-01-01T05:22:22.535Z,67.87
2023-01-01T05:27:21.389Z,67.86
2023-01-01T05:32:20.241Z,69.26
2023-01-01T05:37:20.451Z,71.66
2023-01-01T05:42:20.209Z,70.66
2023-01-01T05:47:19.102Z,69.56
2023-01-01T05:52:21.595Z,70.41
2023-01-01T05:57:26.503Z,69.53
2023-01-01T06:02:25.444Z,68.48
2023-01-01T06:07:24.502Z,68.43
2023-01-01T06:12:23.340Z,67.74
2023-01-01T06:17:23.529Z,66.91
2023-01-01T06:22:22.274Z,66.67
2023-01-01T06:27:21.016Z,65.97
2023-01-01T06:32:19.710Z,65.82
2023-01-01T06:37:21.586Z,66.01
2023-01-01T06:42:20.441Z,65.90
2023-01-01T06:47:19.248Z,66.05
2023-01-01T06:52:21.455Z,66.07
2023-01-01T06:57:20.321Z,65.92
2023-01-01T07:02:19.199Z,65.93
2023-01-01T07:07:18.148Z,66.01
2023-01-01T07:12:18.724Z,66.40
2023-01-01T07:17:17.812Z,66.25
2023-01-01T07:22:18.663Z,65.95
2023-01-01T07:27:18.975Z,66.30
2023-01-01T07:32:17.761Z,66.69
2023-01-01T07:37:16.571Z,68.10
2023-01-01T07:42:15.432Z,67.18
2023-01-01T07:47:25.295Z,68.79
2023-01-01T07:52:24.121Z,67.73
2023-01-01T07:57:22.949Z,67.31
2023-01-01T08:02:23.292Z,66.01
2023-01-01T08:07:22.200Z,65.60
2023-01-01T08:12:21.011Z,65.07
2023-01-01T08:17:20.035Z,65.79
2023-01-01T08:22:20.384Z,65.52
2023-01-01T08:27:19.437Z,65.30
2023-01-01T08:32:18.287Z,65.31
2023-01-01T08:37:17.140Z,64.30
2023-01-01T08:42:17.271Z,63.71
2023-01-01T08:47:20.795Z,62.68
2023-01-01T08:52:20.378Z,61.97
2023-01-01T08:57:20.510Z,61.44
2023-01-01T09:02:19.332Z,60.72
2023-01-01T09:07:18.326Z,59.11
2023-01-01T09:12:17.997Z,57.53
2023-01-01T09:17:18.231Z,56.27
2023-01-01T09:22:16.990Z,54.78
2023-01-01T09:27:15.888Z,53.54
2023-01-01T09:32:14.712Z,53.15
2023-01-01T09:37:14.846Z,51.72
2023-01-01T09:42:28.545Z,51.12
2023-01-01T09:47:31.634Z,49.98
2023-01-01T09:52:41.199Z,50.81
2023-01-01T09:57:40.832Z,49.95
2023-01-01T10:02:53.620Z,48.54
2023-01-01T10:08:04.488Z,47.27
2023-01-01T10:13:16.814Z,48.16
2023-01-01T10:18:21.173Z,46.07
2023-01-01T10:23:25.686Z,46.25
2023-01-01T10:28:31.635Z,44.82
2023-01-01T10:33:30.489Z,44.32
2023-01-01T10:38:30.783Z,45.04
2023-01-01T10:43:29.551Z,44.87
2023-01-01T10:48:30.773Z,44.98
2023-01-01T10:53:33.344Z,44.54
2023-01-01T10:58:50.977Z,42.74
2023-01-01T11:04:01.489Z,42.11
2023-01-01T11:09:04.566Z,40.70
2023-01-01T11:14:06.404Z,40.91
2023-01-01T11:19:07.360Z,40.85
2023-01-01T11:24:20.426Z,39.45
2023-01-01T11:29:25.017Z,39.12
2023-01-01T11:34:37.499Z,38.03
2023-01-01T11:39:39.129Z,38.00
2023-01-01T11:44:42.262Z,37.18
2023-01-01T11:49:41.093Z,36.97
2023-01-01T11:54:44.587Z,36.72
2023-01-01T11:59:48.759Z,37.39
2023-01-01T12:04:51.729Z,37.62
2023-01-01T12:10:01.607Z,37.39
2023-01-01T12:15:05.558Z,37.13
2023-01-01T12:20:12.347Z,38.00
2023-01-01T12:25:17.567Z,37.73
2023-01-01T12:30:22.593Z,37.72
2023-01-01T12:35:32.157Z,38.37
2023-01-01T12:40:48.289Z,37.57
2023-01-01T12:46:25.788Z,36.45
2023-01-01T12:51:34.181Z,36.73
2023-01-01T12:56:39.765Z,37.22
2023-01-01T13:01:40.453Z,36.83
2023-01-01T13:06:43.978Z,36.81
2023-01-01T13:11:48.811Z,36.79
2023-01-01T13:16:55.188Z,37.58
2023-01-01T13:21:54.178Z,37.18
2023-01-01T13:26:55.085Z,36.92
2023-01-01T13:32:08.372Z,37.53
2023-01-01T13:37:28.304Z,37.52
2023-01-01T13:42:43.048Z,37.99
2023-01-01T13:48:01.637Z,37.48
2023-01-01T13:53:17.286Z,37.53
2023-01-01T13:58:55.933Z,37.09
2023-01-01T14:03:57.525Z,37.04
2023-01-01T14:09:03.906Z,37.16
2023-01-01T14:14:04.158Z,36.69
2023-01-01T14:19:03.775Z,36.63
2023-01-01T14:24:05.418Z,37.01
2023-01-01T14:29:08.935Z,36.80
2023-01-01T14:34:15.430Z,36.18
2023-01-01T14:39:28.074Z,36.52
2023-01-01T14:44:34.660Z,37.36
2023-01-01T14:49:36.023Z,37.81
2023-01-01T14:54:38.299Z,38.37
2023-01-01T14:59:47.369Z,39.05
2023-01-01T15:04:46.132Z,39.87
2023-01-01T15:09:44.995Z,40.43
2023-01-01T15:14:46.532Z,41.13
2023-01-01T15:19:48.106Z,41.39
2023-01-01T15:24:50.362Z,42.23
2023-01-01T15:29:51.882Z,42.49
2023-01-01T15:34:55.254Z,43.09
2023-01-01T15:39:57.596Z,43.39
2023-01-01T15:44:57.727Z,44.13
2023-01-01T15:50:09.101Z,44.24
2023-01-01T15:55:08.426Z,44.83
2023-01-01T16:00:20.244Z,44.95
2023-01-01T16:05:22.883Z,45.53
2023-01-01T16:10:21.740Z,45.58
2023-01-01T16:15:21.963Z,46.20
2023-01-01T16:20:22.803Z,46.47
2023-01-01T16:25:23.532Z,46.89
2023-01-01T16:30:29.195Z,47.18
2023-01-01T16:35:27.983Z,47.21
2023-01-01T16:40:26.820Z,47.67
2023-01-01T16:45:27.041Z,47.98
2023-01-01T16:50:27.186Z,48.28
2023-01-01T16:55:26.871Z,48.64
2023-01-01T17:00:27.353Z,48.71
2023-01-01T17:05:26.212Z,48.80
2023-01-01T17:10:25.017Z,49.32
2023-01-01T17:15:24.585Z,49.55
2023-01-01T17:20:24.997Z,49.85
2023-01-01T17:25:24.875Z,50.05
2023-01-01T17:30:23.617Z,50.26
2023-01-01T17:35:22.483Z,50.46
2023-01-01T17:40:22.929Z,50.84
2023-01-01T17:45:22.608Z,50.74
2023-01-01T17:50:23.402Z,51.01
2023-01-01T17:55:23.675Z,51.29
2023-01-01T18:00:22.653Z,51.61
2023-01-01T18:05:23.494Z,51.72
2023-01-01T18:10:23.638Z,51.72
2023-01-01T18:15:22.773Z,51.96
2023-01-01T18:20:21.677Z,51.93
2023-01-01T18:25:21.638Z,52.03
2023-01-01T18:30:21.970Z,52.18
2023-01-01T18:35:20.912Z,52.06
2023-01-01T18:40:19.790Z,52.13
2023-01-01T18:45:22.141Z,52.82
2023-01-01T18:50:25.885Z,52.72
2023-01-01T18:55:28.184Z,52.67
2023-01-01T19:00:31.326Z,52.83
2023-01-01T19:05:30.779Z,52.68
2023-01-01T19:10:37.192Z,53.03
2023-01-01T19:15:37.651Z,53.24
2023-01-01T19:20:36.481Z,53.17
2023-01-01T19:25:40.230Z,53.30
2023-01-01T19:30:40.556Z,53.60
2023-01-01T19:35:39.483Z,53.68
2023-01-01T19:40:38.282Z,53.80
2023-01-01T19:45:37.249Z,53.87
2023-01-01T19:50:40.771Z,54.21
2023-01-01T19:55:47.416Z,54.30
2023-01-01T20:00:48.924Z,54.45
2023-01-01T20:05:56.981Z,54.64
2023-01-01T20:10:58.374Z,54.74
2023-01-01T20:16:15.970Z,54.65
2023-01-01T20:21:42.627Z,54.94
2023-01-01T20:26:45.725Z,54.95
2023-01-01T20:31:51.317Z,55.15
2023-01-01T20:37:11.398Z,55.35
2023-01-01T20:42:12.502Z,55.52
2023-01-01T20:47:11.490Z,55.42
2023-01-01T20:52:13.344Z,55.65
2023-01-01T20:57:13.690Z,55.43
2023-01-01T21:02:13.685Z,55.62
2023-01-01T21:07:14.169Z,55.89
2023-01-01T21:12:13.384Z,55.62
2023-01-01T21:17:22.337Z,55.75
2023-01-01T21:22:22.779Z,55.81
2023-01-01T21:27:25.615Z,56.06
2023-01-01T21:32:26.245Z,56.23
2023-01-01T21:37:47.441Z,56.35
2023-01-01T21:42:46.308Z,56.22
2023-01-01T21:47:45.380Z,56.31
2023-01-01T21:52:47.628Z,56.25
2023-01-01T21:57:46.786Z,56.34
2023-01-01T22:02:48.329Z,56.32
2023-01-01T22:08:04.111Z,56.33
2023-01-01T22:13:03.269Z,56.55
2023-01-01T22:18:18.035Z,56.86
2023-01-01T22:23:43.325Z,56.54
2023-01-01T22:28:44.946Z,56.63
2023-01-01T22:33:47.291Z,56.51
2023-01-01T22:38:47.517Z,56.74
2023-01-01T22:43:49.539Z,56.73
2023-01-01T22:48:54.210Z,56.82
2023-01-01T22:53:58.181Z,56.99
2023-01-01T22:58:58.504Z,57.50
2023-01-01T23:03:57.425Z,57.57
2023-01-01T23:08:58.265Z,57.74
2023-01-01T23:14:14.376Z,57.66
2023-01-01T23:19:13.214Z,57.78
2023-01-01T23:24:16.797Z,57.55
2023-01-01T23:29:17.092Z,57.67
2023-01-01T23:34:16.672Z,57.69
2023-01-01T23:39:16.936Z,57.75
2023-01-01T23:44:15.831Z,57.89
2023-01-01T23:49:15.203Z,58.08
2023-01-01T23:54:13.995Z,58.14
2023-01-01T23:59:15.521Z,58.09
